createdAt,value
2019-01-15T00:02:18.357Z,15.00
2019-01-15T00:05:21.606Z,8.43
2019-01-15T00:08:24.742Z,6.77
2019-01-15T00:11:27.803Z,12.23
2019-01-15T00:14:31.230Z,27.43
2019-01-15T00:17:34.290Z,13.40
2019-01-15T00:20:37.630Z,18.67
2019-01-15T00:23:40.677Z,6.50
2019-01-15T00:26:43.942Z,17.37
2019-01-15T00:29:46.962Z,17.87
2019-01-15T00:32:50.229Z,14.50
2019-01-15T00:35:53.358Z,16.97
2019-01-15T00:38:56.706Z,11.53
2019-01-15T00:41:59.850Z,16.57
2019-01-15T00:45:03.450Z,10.23
2019-01-15T00:48:07.848Z,19.00
2019-01-15T00:51:10.972Z,14.67
2019-01-15T00:54:14.134Z,11.77
2019-01-15T00:57:18.178Z,15.40
2019-01-15T01:00:22.084Z,12.43
2019-01-15T01:03:25.289Z,11.63
2019-01-15T01:06:28.478Z,19.47
2019-01-15T01:09:31.421Z,3.33
2019-01-15T01:12:34.557Z,20.23
2019-01-15T01:15:37.658Z,13.47
2019-01-15T01:18:40.849Z,15.10
2019-01-15T01:21:44.046Z,17.90
2019-01-15T01:24:47.238Z,8.50
2019-01-15T01:27:50.442Z,11.03
2019-01-15T01:30:53.534Z,11.47
2019-01-15T01:33:56.722Z,15.33
2019-01-15T01:36:59.817Z,15.17
2019-01-15T01:40:03.737Z,13.63
2019-01-15T01:43:06.922Z,28.13
2019-01-15T01:46:11.251Z,15.47
2019-01-15T01:49:14.442Z,24.47
2019-01-15T01:52:17.642Z,9.67
2019-01-15T01:55:20.829Z,13.03
2019-01-15T01:58:23.923Z,23.23
2019-01-15T02:01:27.118Z,10.70
2019-01-15T02:04:30.567Z,17.07
2019-01-15T02:07:33.710Z,15.97
2019-01-15T02:10:36.906Z,23.53
2019-01-15T02:13:40.103Z,11.37
2019-01-15T02:16:43.238Z,18.40
2019-01-15T02:19:46.286Z,17.50
2019-01-15T02:22:49.758Z,20.03
2019-01-15T02:25:52.990Z,19.63
2019-01-15T02:28:56.123Z,27.37
2019-01-15T02:31:59.171Z,17.50
2019-01-15T02:35:02.483Z,26.80
2019-01-15T02:38:05.659Z,17.27
2019-01-15T02:41:09.010Z,15.20
2019-01-15T02:44:12.258Z,13.90
2019-01-15T02:47:15.558Z,10.73
2019-01-15T02:50:19.538Z,18.47
2019-01-15T02:53:24.517Z,8.23
2019-01-15T02:56:27.565Z,12.47
2019-01-15T02:59:30.915Z,13.10
2019-01-15T03:02:33.957Z,16.07
2019-01-15T03:05:37.131Z,14.17
2019-01-15T03:08:40.245Z,13.13
2019-01-15T03:11:43.905Z,12.10
2019-01-15T03:14:47.041Z,15.23
2019-01-15T03:17:50.290Z,13.93
2019-01-15T03:20:53.442Z,14.83
2019-01-15T03:23:56.806Z,8.30
2019-01-15T03:26:59.928Z,17.60
2019-01-15T03:30:04.458Z,17.20
2019-01-15T03:33:07.648Z,13.00
2019-01-15T03:36:10.857Z,19.17
2019-01-15T03:39:14.042Z,11.00
2019-01-15T03:42:17.549Z,17.00
2019-01-15T03:45:20.634Z,12.23
2019-01-15T03:48:23.778Z,16.70
2019-01-15T03:51:26.922Z,23.53
2019-01-15T03:54:30.154Z,17.70
2019-01-15T03:57:33.310Z,18.53
2019-01-15T04:00:36.550Z,13.57
2019-01-15T04:03:39.611Z,14.77
2019-01-15T04:06:42.862Z,22.93
2019-01-15T04:09:46.302Z,14.70
2019-01-15T04:12:49.644Z,16.97
2019-01-15T04:15:52.787Z,18.70
2019-01-15T04:18:56.806Z,19.30
2019-01-15T04:21:59.997Z,16.30
2019-01-15T04:25:03.667Z,17.50
2019-01-15T04:28:06.810Z,17.90
2019-01-15T04:31:11.022Z,21.77
2019-01-15T04:34:14.110Z,25.03
2019-01-15T04:37:17.313Z,12.93
2019-01-15T04:40:21.278Z,12.73
2019-01-15T04:43:24.630Z,13.77
2019-01-15T04:46:27.810Z,20.33
2019-01-15T04:49:30.909Z,16.60
2019-01-15T04:52:34.400Z,10.10
2019-01-15T04:55:37.586Z,16.30
2019-01-15T04:58:40.694Z,18.23
2019-01-15T05:01:44.813Z,18.63
2019-01-15T05:04:47.907Z,24.43
2019-01-15T05:07:51.003Z,12.50
2019-01-15T05:10:54.090Z,14.70
2019-01-15T05:13:57.189Z,20.13
2019-01-15T05:17:00.376Z,13.07
2019-01-15T05:20:05.978Z,13.70
2019-01-15T05:23:09.018Z,9.53
2019-01-15T05:26:12.123Z,16.50
2019-01-15T05:29:15.306Z,14.40
2019-01-15T05:32:18.538Z,9.80
2019-01-15T05:35:21.597Z,6.20
2019-01-15T05:38:24.943Z,17.97
2019-01-15T05:41:28.087Z,19.80
2019-01-15T05:44:31.255Z,17.50
2019-01-15T05:47:34.674Z,22.97
2019-01-15T05:50:59.817Z,14.30
2019-01-15T05:54:04.319Z,19.97
2019-01-15T05:57:07.905Z,16.53
2019-01-15T06:00:12.242Z,18.77
2019-01-15T06:03:17.574Z,16.20
2019-01-15T06:06:20.782Z,18.03
2019-01-15T06:09:24.239Z,18.00
2019-01-15T06:12:27.486Z,13.97
2019-01-15T06:15:30.805Z,23.83
2019-01-15T06:18:33.974Z,16.60
2019-01-15T06:21:37.322Z,13.77
2019-01-15T06:24:40.469Z,19.13
2019-01-15T06:27:44.784Z,11.40
2019-01-15T06:30:48.182Z,17.50
2019-01-15T06:33:51.394Z,15.43
2019-01-15T06:36:55.497Z,16.50
2019-01-15T06:39:58.734Z,11.97
2019-01-15T06:43:01.790Z,12.53
2019-01-15T06:46:05.302Z,13.63
2019-01-15T06:49:08.791Z,5.10
2019-01-15T06:52:12.048Z,6.87
2019-01-15T06:55:16.687Z,18.83
2019-01-15T06:58:19.846Z,14.77
2019-01-15T07:01:23.934Z,11.50
2019-01-15T07:04:27.068Z,18.67
2019-01-15T07:07:30.218Z,11.60
2019-01-15T07:10:38.095Z,17.57
2019-01-15T07:13:41.320Z,14.93
2019-01-15T07:16:44.542Z,10.37
2019-01-15T07:19:47.612Z,6.43
2019-01-15T07:22:50.734Z,10.97
2019-01-15T07:25:53.891Z,20.00
2019-01-15T07:28:57.138Z,14.83
2019-01-15T07:32:00.182Z,5.47
2019-01-15T07:35:03.734Z,23.00
2019-01-15T07:38:06.979Z,7.43
2019-01-15T07:41:10.122Z,10.37
2019-01-15T07:44:13.162Z,17.97
2019-01-15T07:47:16.429Z,8.80
2019-01-15T07:50:19.657Z,9.17
2019-01-15T07:53:22.790Z,9.67
2019-01-15T07:56:25.851Z,18.97
2019-01-15T07:59:29.393Z,17.47
2019-01-15T08:02:32.441Z,13.47
2019-01-15T08:05:35.668Z,7.80
2019-01-15T08:08:38.726Z,12.50
2019-01-15T08:11:42.060Z,7.13
2019-01-15T08:14:45.222Z,20.37
2019-01-15T08:17:48.417Z,5.60
2019-01-15T08:20:51.612Z,13.17
2019-01-15T08:23:54.704Z,10.50
2019-01-15T08:26:57.818Z,13.63
2019-01-15T08:30:00.890Z,12.87
2019-01-15T08:33:04.183Z,10.10
2019-01-15T08:36:07.379Z,12.17
2019-01-15T08:39:10.471Z,9.77
2019-01-15T08:42:13.566Z,12.47
2019-01-15T08:45:17.269Z,7.87
2019-01-15T08:48:22.938Z,7.83
2019-01-15T08:51:26.350Z,10.33
2019-01-15T08:54:29.746Z,11.63
2019-01-15T08:57:32.943Z,10.17
2019-01-15T09:00:36.043Z,10.93
2019-01-15T09:03:39.134Z,2.30
2019-01-15T09:06:43.454Z,18.33
2019-01-15T09:09:46.546Z,17.93
2019-01-15T09:12:50.437Z,7.80
2019-01-15T09:15:53.660Z,17.90
2019-01-15T09:18:56.854Z,10.33
2019-01-15T09:21:59.942Z,9.30
2019-01-15T09:25:03.446Z,9.87
2019-01-15T09:28:06.640Z,4.93
2019-01-15T09:31:09.787Z,5.50
2019-01-15T09:34:12.928Z,12.23
2019-01-15T09:37:16.782Z,5.80
2019-01-15T09:40:21.752Z,4.80
2019-01-15T09:43:25.119Z,5.80
2019-01-15T09:46:28.162Z,6.73
2019-01-15T09:49:31.304Z,7.03
2019-01-15T09:52:34.651Z,6.43
2019-01-15T09:55:37.787Z,4.23
2019-01-15T09:58:40.946Z,8.30
2019-01-15T10:01:44.075Z,3.17
2019-01-15T10:04:47.226Z,7.47
2019-01-15T10:07:50.678Z,10.40
2019-01-15T10:10:53.930Z,6.03
2019-01-15T10:13:57.178Z,4.50
2019-01-15T10:17:00.727Z,10.80
2019-01-15T10:20:06.482Z,10.97
2019-01-15T10:23:09.882Z,7.60
2019-01-15T10:26:13.230Z,6.20
2019-01-15T10:29:16.374Z,4.07
2019-01-15T10:32:38.566Z,8.63
2019-01-15T10:36:00.259Z,12.83
2019-01-15T10:39:07.531Z,12.03
2019-01-15T10:42:11.658Z,16.77
2019-01-15T10:45:14.890Z,12.40
2019-01-15T10:48:17.948Z,11.20
2019-01-15T10:51:21.196Z,11.37
2019-01-15T10:54:24.330Z,6.60
2019-01-15T10:57:27.502Z,9.40
2019-01-15T11:00:30.718Z,16.20
2019-01-15T11:03:36.766Z,8.97
2019-01-15T11:06:39.879Z,4.77
2019-01-15T11:09:43.018Z,11.73
2019-01-15T11:12:46.067Z,10.30
2019-01-15T11:15:49.298Z,3.53
2019-01-15T11:18:52.350Z,7.73
2019-01-15T11:21:55.595Z,16.27
2019-01-15T11:24:59.767Z,12.63
2019-01-15T11:28:03.514Z,11.33
2019-01-15T11:31:07.698Z,11.43
2019-01-15T11:34:10.973Z,14.87
2019-01-15T11:37:14.186Z,9.63
2019-01-15T11:40:17.426Z,7.83
2019-01-15T11:43:20.470Z,7.13
2019-01-15T11:46:23.714Z,14.50
2019-01-15T11:49:26.862Z,5.50
2019-01-15T11:52:30.022Z,13.77
2019-01-15T11:55:33.282Z,11.57
2019-01-15T11:58:36.582Z,4.80
2019-01-15T12:01:55.595Z,14.73
2019-01-15T12:05:17.093Z,14.97
2019-01-15T12:08:36.819Z,11.53
2019-01-15T12:12:11.319Z,15.87
2019-01-15T12:15:35.841Z,14.80
2019-01-15T12:18:56.934Z,11.23
2019-01-15T12:22:29.590Z,10.13
2019-01-15T12:25:45.546Z,13.87
2019-01-15T12:29:25.956Z,11.40
2019-01-15T12:33:06.714Z,15.73
2019-01-15T12:36:21.654Z,20.70
2019-01-15T12:39:44.191Z,15.33
2019-01-15T12:43:05.183Z,15.20
2019-01-15T12:46:42.868Z,22.10
2019-01-15T12:50:10.174Z,24.37
2019-01-15T12:53:37.850Z,16.97
2019-01-15T12:57:00.834Z,13.40
2019-01-15T13:00:35.322Z,14.43
2019-01-15T13:04:02.286Z,15.53
2019-01-15T13:07:34.206Z,22.83
2019-01-15T13:10:57.776Z,13.10
2019-01-15T13:14:20.370Z,14.20
2019-01-15T13:17:44.051Z,17.77
2019-01-15T13:21:12.426Z,17.03
2019-01-15T13:24:53.234Z,13.93
2019-01-15T13:28:30.654Z,11.90
2019-01-15T13:31:56.058Z,14.73
2019-01-15T13:35:27.562Z,13.13
2019-01-15T13:38:52.955Z,16.50
2019-01-15T13:42:18.081Z,12.63
2019-01-15T13:45:41.910Z,16.10
2019-01-15T13:49:06.454Z,17.60
2019-01-15T13:52:27.854Z,11.03
2019-01-15T13:55:47.908Z,23.57
2019-01-15T13:59:10.958Z,17.97
2019-01-15T14:02:32.106Z,18.37
2019-01-15T14:05:56.210Z,17.80
2019-01-15T14:09:29.091Z,18.67
2019-01-15T14:13:02.463Z,19.90
2019-01-15T14:16:23.318Z,21.77
2019-01-15T14:20:04.131Z,25.60
2019-01-15T14:23:41.529Z,22.37
2019-01-15T14:27:12.910Z,20.70
2019-01-15T14:30:35.978Z,23.10
2019-01-15T14:34:10.583Z,22.50
2019-01-15T14:37:27.951Z,22.07
2019-01-15T14:40:49.076Z,25.60
2019-01-15T14:44:20.670Z,24.60
2019-01-15T14:47:51.583Z,24.37
2019-01-15T14:51:06.401Z,24.17
2019-01-15T14:54:32.187Z,23.97
2019-01-15T14:58:00.718Z,30.07
2019-01-15T15:01:29.089Z,30.07
2019-01-15T15:04:50.350Z,33.00
2019-01-15T15:08:11.330Z,27.27
2019-01-15T15:11:36.498Z,30.90
2019-01-15T15:15:17.315Z,26.13
2019-01-15T15:18:36.282Z,28.30
2019-01-15T15:22:01.615Z,22.23
2019-01-15T15:25:32.380Z,24.00
2019-01-15T15:28:54.982Z,30.57
2019-01-15T15:32:12.307Z,36.70
2019-01-15T15:35:33.517Z,33.60
2019-01-15T15:38:54.640Z,31.43
2019-01-15T15:42:20.786Z,29.17
2019-01-15T15:45:38.414Z,30.77
2019-01-15T15:49:03.582Z,31.47
2019-01-15T15:52:26.355Z,31.47
2019-01-15T15:55:50.593Z,34.53
2019-01-15T15:59:13.206Z,30.27
2019-01-15T16:02:28.541Z,29.60
2019-01-15T16:06:03.262Z,26.93
2019-01-15T16:09:26.449Z,30.63
2019-01-15T16:12:51.862Z,33.97
2019-01-15T16:16:18.716Z,28.87
2019-01-15T16:19:50.638Z,25.03
2019-01-15T16:23:21.114Z,26.80
2019-01-15T16:26:35.522Z,23.27
2019-01-15T16:29:58.419Z,25.30
2019-01-15T16:33:19.350Z,29.50
2019-01-15T16:36:53.994Z,34.27
2019-01-15T16:40:15.195Z,29.33
2019-01-15T16:43:46.720Z,26.43
2019-01-15T16:47:07.194Z,27.80
2019-01-15T16:50:42.090Z,35.40
2019-01-15T16:54:03.080Z,26.23
2019-01-15T16:57:34.669Z,34.43
2019-01-15T17:01:15.399Z,31.60
2019-01-15T17:04:36.241Z,33.40
2019-01-15T17:08:16.898Z,48.73
2019-01-15T17:11:39.406Z,29.50
2019-01-15T17:15:00.643Z,36.93
2019-01-15T17:18:21.070Z,31.77
2019-01-15T17:21:43.562Z,32.20
2019-01-15T17:25:06.146Z,34.30
2019-01-15T17:28:31.547Z,30.10
2019-01-15T17:31:52.535Z,36.80
2019-01-15T17:35:17.918Z,31.33
2019-01-15T17:38:36.583Z,31.47
2019-01-15T17:42:01.986Z,26.47
2019-01-15T17:45:31.411Z,29.95
2019-01-15T17:48:57.976Z,34.77
2019-01-15T17:52:23.334Z,32.00
2019-01-15T17:55:45.850Z,32.60
2019-01-15T17:59:06.890Z,29.03
2019-01-15T18:02:28.419Z,37.57
2019-01-15T18:05:49.690Z,19.90
2019-01-15T18:09:12.262Z,32.63
2019-01-15T18:12:33.840Z,28.23
2019-01-15T18:15:54.926Z,27.45
2019-01-15T18:19:16.257Z,18.20
2019-01-15T18:22:50.870Z,24.32
2019-01-15T18:26:13.430Z,20.07
2019-01-15T18:29:42.078Z,23.50
2019-01-15T18:33:03.477Z,17.53
2019-01-15T18:36:25.954Z,13.73
2019-01-15T18:39:54.618Z,24.20
2019-01-15T18:43:15.809Z,21.83
2019-01-15T18:46:37.242Z,20.72
2019-01-15T18:50:05.707Z,16.40
2019-01-15T18:53:35.716Z,19.23
2019-01-15T18:57:10.305Z,16.10
2019-01-15T19:00:30.946Z,18.60
2019-01-15T19:03:56.375Z,20.93
2019-01-15T19:07:17.494Z,17.67
2019-01-15T19:10:58.274Z,15.47
2019-01-15T19:14:34.018Z,19.57
2019-01-15T19:17:52.097Z,18.77
2019-01-15T19:21:18.887Z,21.10
2019-01-15T19:24:39.559Z,19.90
2019-01-15T19:28:13.894Z,24.53
2019-01-15T19:31:36.419Z,17.63
2019-01-15T19:34:57.726Z,19.85
2019-01-15T19:38:20.282Z,21.97
2019-01-15T19:41:45.802Z,21.97
2019-01-15T19:45:14.411Z,17.30
2019-01-15T19:48:40.954Z,21.97
2019-01-15T19:52:12.618Z,17.67
2019-01-15T19:55:33.838Z,23.93
2019-01-15T19:59:08.367Z,16.40
2019-01-15T20:02:29.734Z,19.73
2019-01-15T20:06:01.626Z,20.67
2019-01-15T20:09:25.460Z,16.27
2019-01-15T20:12:48.032Z,15.97
2019-01-15T20:16:16.564Z,13.80
2019-01-15T20:19:37.754Z,15.73
2019-01-15T20:23:15.493Z,14.43
2019-01-15T20:26:36.830Z,14.97
2019-01-15T20:29:59.274Z,16.23
2019-01-15T20:33:15.109Z,12.50
2019-01-15T20:36:40.651Z,12.30
2019-01-15T20:39:59.603Z,10.80
2019-01-15T20:43:30.978Z,10.48
2019-01-15T20:46:48.595Z,6.60
2019-01-15T20:50:10.031Z,18.30
2019-01-15T20:53:32.815Z,10.10
2019-01-15T20:57:01.379Z,9.47
2019-01-15T21:00:35.376Z,10.13
2019-01-15T21:03:56.455Z,12.00
2019-01-15T21:07:21.867Z,10.77
2019-01-15T21:10:43.083Z,10.53
2019-01-15T21:14:23.823Z,10.40
2019-01-15T21:17:44.195Z,10.03
2019-01-15T21:21:06.728Z,10.33
2019-01-15T21:24:27.886Z,8.73
2019-01-15T21:27:45.391Z,11.47
2019-01-15T21:31:16.871Z,9.67
2019-01-15T21:34:37.703Z,10.13
2019-01-15T21:38:09.415Z,9.13
2019-01-15T21:41:43.751Z,8.00
2019-01-15T21:45:18.371Z,9.60
2019-01-15T21:48:44.294Z,11.57
2019-01-15T21:52:21.812Z,11.17
2019-01-15T21:55:56.479Z,11.77
2019-01-15T21:59:20.471Z,8.50
2019-01-15T22:02:48.487Z,7.47
2019-01-15T22:06:01.171Z,9.00
2019-01-15T22:09:36.720Z,6.47
2019-01-15T22:13:05.376Z,6.93
2019-01-15T22:16:30.923Z,4.13
2019-01-15T22:19:47.436Z,5.95
2019-01-15T22:23:17.078Z,5.40
2019-01-15T22:26:42.499Z,4.83
2019-01-15T22:30:07.647Z,6.20
2019-01-15T22:33:42.451Z,4.77
2019-01-15T22:37:14.233Z,7.40
2019-01-15T22:40:45.880Z,6.97
2019-01-15T22:44:07.216Z,6.03
2019-01-15T22:47:28.474Z,4.73
2019-01-15T22:51:03.260Z,7.33
2019-01-15T22:54:24.707Z,7.50
2019-01-15T22:58:02.408Z,6.97
2019-01-15T23:01:45.907Z,8.13
2019-01-15T23:05:15.635Z,6.30
2019-01-15T23:08:44.231Z,6.37
2019-01-15T23:12:21.672Z,7.93
2019-01-15T23:15:42.993Z,4.75
2019-01-15T23:19:05.547Z,6.47
2019-01-15T23:22:28.195Z,7.07
2019-01-15T23:25:49.281Z,9.73
2019-01-15T23:29:11.867Z,9.73
2019-01-15T23:32:40.006Z,10.83
2019-01-15T23:35:58.200Z,10.17
2019-01-15T23:39:14.340Z,10.17
2019-01-15T23:42:35.448Z,9.43
2019-01-15T23:46:01.051Z,14.17
2019-01-15T23:49:23.575Z,12.27
2019-01-15T23:52:43.935Z,12.03
2019-01-15T23:56:05.246Z,12.50
2019-01-15T23:59:46.234Z,11.95
